createdAt,value
2023-01-03T00:02:16.934Z,101802.59
2023-01-03T00:04:49.215Z,101803.09
2023-01-03T00:07:33.589Z,101806.69
2023-01-03T00:10:10.177Z,101804.91
2023-01-03T00:12:37.889Z,101804.16
2023-01-03T00:15:04.772Z,101809.41
2023-01-03T00:17:31.450Z,101803.31
2023-01-03T00:19:58.036Z,101802.78
2023-01-03T00:22:24.885Z,101796.81
2023-01-03T00:24:53.219Z,101794.28
2023-01-03T00:27:19.849Z,101807.72
2023-01-03T00:29:46.810Z,101795.59
2023-01-03T00:32:13.485Z,101815.34
2023-01-03T00:34:40.382Z,101809.34
2023-01-03T00:37:14.220Z,101813.78
2023-01-03T00:39:40.969Z,101814.41
2023-01-03T00:42:07.718Z,101811.75
2023-01-03T00:44:34.375Z,101817.41
2023-01-03T00:47:01.609Z,101812.63
2023-01-03T00:49:28.288Z,101826.00
2023-01-03T00:51:55.013Z,101830.22
2023-01-03T00:54:22.355Z,101834.47
2023-01-03T00:56:50.082Z,101838.47
2023-01-03T00:59:18.479Z,101825.00
2023-01-03T01:01:49.636Z,101828.53
2023-01-03T01:04:22.348Z,101833.72
2023-01-03T01:07:03.475Z,101831.81
2023-01-03T01:09:36.922Z,101833.69
2023-01-03T01:12:05.780Z,101841.66
2023-01-03T01:14:33.719Z,101854.34
2023-01-03T01:17:03.612Z,101864.03
2023-01-03T01:19:36.147Z,101863.41
2023-01-03T01:22:03.317Z,101866.00
2023-01-03T01:24:29.883Z,101864.13
2023-01-03T01:26:56.507Z,101865.91
2023-01-03T01:29:23.102Z,101859.91
2023-01-03T01:31:49.752Z,101867.00
2023-01-03T01:34:16.561Z,101872.25
2023-01-03T01:36:43.878Z,101864.97
2023-01-03T01:39:14.714Z,101867.53
2023-01-03T01:42:00.592Z,101865.91
2023-01-03T01:44:41.154Z,101870.13
2023-01-03T01:47:28.162Z,101866.59
2023-01-03T01:50:07.446Z,101867.13
2023-01-03T01:52:38.131Z,101866.53
2023-01-03T01:55:08.174Z,101869.03
2023-01-03T01:57:37.582Z,101878.22
2023-01-03T02:00:06.876Z,101872.88
2023-01-03T02:02:33.827Z,101873.28
2023-01-03T02:05:03.520Z,101882.94
2023-01-03T02:07:30.064Z,101875.88
2023-01-03T02:09:58.324Z,101877.72
2023-01-03T02:12:46.283Z,101878.03
2023-01-03T02:15:34.282Z,101882.66
2023-01-03T02:18:06.705Z,101888.25
2023-01-03T02:21:03.498Z,101884.59
2023-01-03T02:24:07.103Z,101886.06
2023-01-03T02:26:55.517Z,101876.94
2023-01-03T02:29:40.919Z,101884.16
2023-01-03T02:32:10.536Z,101887.97
2023-01-03T02:34:55.798Z,101898.16
2023-01-03T02:37:31.054Z,101897.03
2023-01-03T02:40:25.340Z,101890.94
2023-01-03T02:43:21.582Z,101894.56
2023-01-03T02:46:09.118Z,101904.59
2023-01-03T02:49:03.447Z,101907.69
2023-01-03T02:52:02.531Z,101908.66
2023-01-03T02:54:37.076Z,101906.84
2023-01-03T02:57:12.653Z,101917.19
2023-01-03T02:59:47.629Z,101910.38
2023-01-03T03:02:17.126Z,101917.81
2023-01-03T03:04:45.093Z,101918.84
2023-01-03T03:07:19.612Z,101920.13
2023-01-03T03:10:05.234Z,101920.69
2023-01-03T03:12:53.632Z,101920.97
2023-01-03T03:15:23.744Z,101934.22
2023-01-03T03:17:57.703Z,101932.53
2023-01-03T03:20:42.558Z,101918.44
2023-01-03T03:23:33.283Z,101926.69
2023-01-03T03:26:23.552Z,101918.78
2023-01-03T03:28:56.349Z,101923.00
2023-01-03T03:31:28.743Z,101912.59
2023-01-03T03:33:55.321Z,101920.16
2023-01-03T03:36:40.447Z,101916.72
2023-01-03T03:39:29.346Z,101909.78
2023-01-03T03:42:23.349Z,101921.44
2023-01-03T03:45:01.982Z,101931.78
2023-01-03T03:47:44.644Z,101932.00
2023-01-03T03:50:20.771Z,101931.03
2023-01-03T03:52:52.292Z,101922.16
2023-01-03T03:55:33.209Z,101928.69
2023-01-03T03:58:11.431Z,101922.78
2023-01-03T04:00:41.789Z,101918.72
2023-01-03T04:03:10.822Z,101935.25
2023-01-03T04:05:41.023Z,101933.75
2023-01-03T04:08:07.888Z,101932.19
2023-01-03T04:10:38.023Z,101931.78
2023-01-03T04:13:05.347Z,101937.66
2023-01-03T04:15:31.899Z,101935.47
2023-01-03T04:17:58.524Z,101930.22
2023-01-03T04:20:25.260Z,101952.16
2023-01-03T04:22:51.801Z,101954.59
2023-01-03T04:25:18.360Z,101948.81
2023-01-03T04:27:44.970Z,101950.94
2023-01-03T04:30:12.492Z,101951.44
2023-01-03T04:32:39.282Z,101946.97
2023-01-03T04:35:06.774Z,101957.09
2023-01-03T04:37:33.361Z,101951.50
2023-01-03T04:39:59.921Z,101953.53
2023-01-03T04:42:45.008Z,101953.84
2023-01-03T04:45:11.658Z,101955.78
2023-01-03T04:47:38.184Z,101959.22
2023-01-03T04:50:05.133Z,101960.97
2023-01-03T04:52:32.131Z,101955.81
2023-01-03T04:54:58.691Z,101967.94
2023-01-03T04:57:25.420Z,101964.06
2023-01-03T04:59:51.927Z,101959.06
2023-01-03T05:02:18.634Z,101969.63
2023-01-03T05:04:45.304Z,101972.28
2023-01-03T05:07:12.020Z,101971.91
2023-01-03T05:09:38.541Z,101968.59
2023-01-03T05:12:05.380Z,101970.97
2023-01-03T05:14:31.939Z,101965.75
2023-01-03T05:16:58.489Z,101971.19
2023-01-03T05:19:25.097Z,101969.44
2023-01-03T05:22:10.298Z,101971.25
2023-01-03T05:24:55.216Z,101975.69
2023-01-03T05:27:21.783Z,101984.50
2023-01-03T05:29:52.477Z,101982.66
2023-01-03T05:32:19.154Z,101980.09
2023-01-03T05:34:45.747Z,101987.03
2023-01-03T05:37:12.301Z,101984.50
2023-01-03T05:39:38.893Z,101981.63
2023-01-03T05:42:05.760Z,101989.09
2023-01-03T05:44:34.201Z,101998.28
2023-01-03T05:47:02.958Z,102002.34
2023-01-03T05:49:29.656Z,102005.56
2023-01-03T05:51:56.504Z,102007.72
2023-01-03T05:54:23.077Z,102013.19
2023-01-03T05:56:51.091Z,102014.59
2023-01-03T05:59:18.655Z,102019.81
2023-01-03T06:01:45.533Z,102019.38
2023-01-03T06:04:12.264Z,102015.53
2023-01-03T06:06:38.918Z,102015.25
2023-01-03T06:09:05.563Z,102029.44
2023-01-03T06:11:32.202Z,102027.03
2023-01-03T06:13:58.755Z,102027.69
2023-01-03T06:16:44.244Z,102023.16
2023-01-03T06:19:11.494Z,102039.16
2023-01-03T06:21:38.684Z,102032.81
2023-01-03T06:24:05.814Z,102034.56
2023-01-03T06:26:32.434Z,102030.84
2023-01-03T06:29:00.587Z,102031.63
2023-01-03T06:31:27.829Z,102024.03
2023-01-03T06:33:54.586Z,102029.03
2023-01-03T06:36:23.307Z,102026.69
2023-01-03T06:38:49.803Z,102034.91
2023-01-03T06:41:16.776Z,102034.69
2023-01-03T06:43:43.903Z,102030.59
2023-01-03T06:46:31.057Z,102033.72
2023-01-03T06:49:17.259Z,102036.53
2023-01-03T06:52:04.890Z,102039.19
2023-01-03T06:54:34.374Z,102044.06
2023-01-03T06:57:01.017Z,102041.16
2023-01-03T06:59:27.762Z,102046.16
2023-01-03T07:01:56.329Z,102044.88
2023-01-03T07:04:25.049Z,102046.31
2023-01-03T07:06:51.748Z,102046.47
2023-01-03T07:09:18.483Z,102046.81
2023-01-03T07:11:45.642Z,102045.19
2023-01-03T07:14:13.087Z,102055.69
2023-01-03T07:16:45.552Z,102052.78
2023-01-03T07:19:19.922Z,102049.03
2023-01-03T07:21:47.150Z,102040.81
2023-01-03T07:24:15.555Z,102052.84
2023-01-03T07:26:42.128Z,102061.28
2023-01-03T07:29:10.473Z,102051.81
2023-01-03T07:31:41.200Z,102054.94
2023-01-03T07:34:08.822Z,102055.56
2023-01-03T07:36:35.476Z,102067.66
2023-01-03T07:39:02.073Z,102068.38
2023-01-03T07:41:48.604Z,102068.31
2023-01-03T07:44:15.168Z,102069.75
2023-01-03T07:46:41.714Z,102073.94
2023-01-03T07:49:11.817Z,102077.31
2023-01-03T07:51:39.568Z,102066.81
2023-01-03T07:54:07.573Z,102067.28
2023-01-03T07:56:34.613Z,102070.75
2023-01-03T07:59:02.024Z,102073.25
2023-01-03T08:01:30.210Z,102071.47
2023-01-03T08:03:57.086Z,102076.34
2023-01-03T08:06:24.212Z,102079.84
2023-01-03T08:09:09.546Z,102075.22
2023-01-03T08:11:55.649Z,102073.16
2023-01-03T08:14:26.175Z,102078.31
2023-01-03T08:16:55.195Z,102074.75
2023-01-03T08:19:22.821Z,102075.56
2023-01-03T08:21:49.537Z,102073.78
2023-01-03T08:24:16.179Z,102071.66
2023-01-03T08:26:42.860Z,102082.00
2023-01-03T08:29:09.546Z,102079.84
2023-01-03T08:31:40.566Z,102087.59
2023-01-03T08:34:17.021Z,102092.00
2023-01-03T08:36:52.031Z,102095.34
2023-01-03T08:39:23.246Z,102088.22
2023-01-03T08:41:57.220Z,102088.72
2023-01-03T08:44:23.853Z,102093.22
2023-01-03T08:46:53.787Z,102086.94
2023-01-03T08:49:21.368Z,102090.25
2023-01-03T08:51:47.972Z,102096.38
2023-01-03T08:54:14.570Z,102091.41
2023-01-03T08:56:41.143Z,102094.00
2023-01-03T08:59:08.272Z,102095.84
2023-01-03T09:01:35.131Z,102086.56
2023-01-03T09:04:01.818Z,102090.31
2023-01-03T09:06:28.499Z,102081.59
2023-01-03T09:08:55.038Z,102084.66
2023-01-03T09:11:21.631Z,102078.69
2023-01-03T09:13:48.249Z,102077.97
2023-01-03T09:16:16.472Z,102074.19
2023-01-03T09:18:43.643Z,102081.41
2023-01-03T09:21:10.180Z,102071.00
2023-01-03T09:23:37.125Z,102073.25
2023-01-03T09:26:05.282Z,102071.09
2023-01-03T09:28:32.919Z,102072.19
2023-01-03T09:30:59.477Z,102082.44
2023-01-03T09:33:26.519Z,102067.69
2023-01-03T09:35:54.820Z,102072.59
2023-01-03T09:38:25.251Z,102071.34
2023-01-03T09:41:03.713Z,102071.81
2023-01-03T09:43:48.588Z,102066.97
2023-01-03T09:46:20.988Z,102061.75
2023-01-03T09:48:48.960Z,102068.75
2023-01-03T09:51:38.665Z,102068.28
2023-01-03T09:54:30.123Z,102062.72
2023-01-03T09:57:15.221Z,102075.56
2023-01-03T10:00:00.698Z,102077.31
2023-01-03T10:03:06.547Z,102081.03
2023-01-03T10:05:33.114Z,102080.88
2023-01-03T10:08:17.765Z,102077.88
2023-01-03T10:10:51.267Z,102076.66
2023-01-03T10:13:33.462Z,102068.72
2023-01-03T10:16:18.755Z,102070.50
2023-01-03T10:19:22.856Z,102071.78
2023-01-03T10:22:08.413Z,102062.72
2023-01-03T10:24:46.296Z,102060.28
2023-01-03T10:27:22.262Z,102060.47
2023-01-03T10:29:53.755Z,102063.31
2023-01-03T10:32:49.358Z,102049.56
2023-01-03T10:35:22.636Z,102046.44
2023-01-03T10:37:53.944Z,102042.88
2023-01-03T10:40:21.700Z,102044.53
2023-01-03T10:42:50.294Z,102052.22
2023-01-03T10:45:20.031Z,102041.47
2023-01-03T10:48:06.774Z,102039.50
2023-01-03T10:50:37.814Z,102030.34
2023-01-03T10:53:08.059Z,102038.03
2023-01-03T10:55:44.055Z,102027.06
2023-01-03T10:58:29.376Z,102033.13
2023-01-03T11:01:11.979Z,102026.75
2023-01-03T11:03:51.102Z,102033.97
2023-01-03T11:06:18.048Z,102030.16
2023-01-03T11:08:57.209Z,102042.41
2023-01-03T11:11:35.769Z,102030.72
2023-01-03T11:14:26.898Z,102038.41
2023-01-03T11:17:04.845Z,102025.84
2023-01-03T11:19:33.976Z,102035.75
2023-01-03T11:22:14.481Z,102028.25
2023-01-03T11:25:02.992Z,102017.06
2023-01-03T11:28:16.407Z,102024.91
2023-01-03T11:31:02.308Z,102021.09
2023-01-03T11:33:56.819Z,102018.41
2023-01-03T11:36:52.127Z,102012.28
2023-01-03T11:39:53.662Z,102003.47
2023-01-03T11:42:32.278Z,102001.38
2023-01-03T11:45:16.578Z,101988.50
2023-01-03T11:47:59.951Z,101996.78
2023-01-03T11:50:41.571Z,102002.47
2023-01-03T11:53:29.937Z,101987.72
2023-01-03T11:56:01.816Z,101978.16
2023-01-03T11:58:34.346Z,101977.06
2023-01-03T12:01:07.912Z,101976.88
2023-01-03T12:03:46.481Z,101975.41
2023-01-03T12:06:39.576Z,101977.16
2023-01-03T12:09:20.988Z,101968.50
2023-01-03T12:12:04.095Z,101973.72
2023-01-03T12:15:23.293Z,101970.97
2023-01-03T12:18:05.528Z,101962.00
2023-01-03T12:20:44.715Z,101974.28
2023-01-03T12:23:26.433Z,101968.69
2023-01-03T12:25:57.172Z,101962.38
2023-01-03T12:28:31.730Z,101963.19
2023-01-03T12:31:03.276Z,101967.25
2023-01-03T12:33:32.710Z,101964.19
2023-01-03T12:36:14.109Z,101961.50
2023-01-03T12:38:47.916Z,101963.19
2023-01-03T12:41:27.297Z,101961.28
2023-01-03T12:44:08.306Z,101956.22
2023-01-03T12:46:41.820Z,101963.91
2023-01-03T12:49:14.467Z,101964.59
2023-01-03T12:51:41.173Z,101965.34
2023-01-03T12:54:47.340Z,101951.91
2023-01-03T12:57:45.106Z,101959.34
2023-01-03T13:00:26.707Z,101958.59
2023-01-03T13:03:00.074Z,101954.88
2023-01-03T13:05:45.124Z,101953.66
2023-01-03T13:08:33.004Z,101952.81
2023-01-03T13:11:04.703Z,101948.53
2023-01-03T13:13:32.907Z,101942.50
2023-01-03T13:15:59.912Z,101938.41
2023-01-03T13:18:36.393Z,101946.28
2023-01-03T13:21:41.504Z,101950.88
2023-01-03T13:24:08.575Z,101949.16
2023-01-03T13:26:35.149Z,101946.50
2023-01-03T13:29:34.055Z,101949.50
2023-01-03T13:32:22.462Z,101948.03
2023-01-03T13:34:58.006Z,101951.28
2023-01-03T13:37:44.648Z,101951.28
2023-01-03T13:40:39.411Z,101953.19
2023-01-03T13:43:11.450Z,101953.06
2023-01-03T13:45:38.001Z,101950.50
2023-01-03T13:48:22.936Z,101949.03
2023-01-03T13:51:24.883Z,101938.09
2023-01-03T13:53:57.624Z,101945.84
2023-01-03T13:56:50.121Z,101950.59
2023-01-03T13:59:49.212Z,101944.50
2023-01-03T14:02:46.941Z,101945.91
2023-01-03T14:05:43.024Z,101942.41
2023-01-03T14:08:15.824Z,101942.88
2023-01-03T14:11:33.350Z,101938.56
2023-01-03T14:14:06.342Z,101929.63
2023-01-03T14:16:43.953Z,101936.41
2023-01-03T14:19:21.798Z,101930.50
2023-01-03T14:21:55.214Z,101934.25
2023-01-03T14:24:28.218Z,101933.97
2023-01-03T14:27:03.066Z,101933.38
2023-01-03T14:29:29.590Z,101938.94
2023-01-03T14:31:57.155Z,101942.47
2023-01-03T14:34:36.776Z,101939.25
2023-01-03T14:37:04.670Z,101942.06
2023-01-03T14:42:01.497Z,101951.63
2023-01-03T14:44:31.126Z,101957.41
2023-01-03T14:46:59.448Z,101951.34
2023-01-03T14:49:37.629Z,101952.72
2023-01-03T14:52:13.273Z,101962.25
2023-01-03T14:54:45.203Z,101963.59
2023-01-03T14:57:25.888Z,101963.91
2023-01-03T14:59:56.085Z,101961.19
2023-01-03T15:02:24.305Z,101964.00
2023-01-03T15:04:55.263Z,101957.41
2023-01-03T15:07:37.323Z,101958.25
2023-01-03T15:10:18.081Z,101956.09
2023-01-03T15:12:48.903Z,101959.16
2023-01-03T15:15:20.295Z,101956.53
2023-01-03T15:17:50.147Z,101953.09
2023-01-03T15:20:30.744Z,101951.56
2023-01-03T15:22:57.598Z,101945.38
2023-01-03T15:25:33.812Z,101941.19
2023-01-03T15:28:31.124Z,101945.75
2023-01-03T15:31:27.600Z,101941.25
2023-01-03T15:34:16.625Z,101940.88
2023-01-03T15:36:57.362Z,101939.22
2023-01-03T15:39:26.979Z,101948.38
2023-01-03T15:42:43.581Z,101947.50
2023-01-03T15:45:23.043Z,101950.84
2023-01-03T15:48:00.139Z,101947.41
2023-01-03T15:50:39.139Z,101951.03
2023-01-03T15:53:05.918Z,101953.09
2023-01-03T15:55:32.528Z,101952.28
2023-01-03T15:57:59.186Z,101957.09
2023-01-03T16:00:26.302Z,101945.22
2023-01-03T16:02:53.085Z,101949.44
2023-01-03T16:05:23.256Z,101939.13
2023-01-03T16:07:50.822Z,101943.03
2023-01-03T16:10:17.500Z,101949.25
2023-01-03T16:12:44.302Z,101944.94
2023-01-03T16:15:22.575Z,101941.53
2023-01-03T16:17:51.172Z,101936.28
2023-01-03T16:20:19.089Z,101942.41
2023-01-03T16:22:59.776Z,101944.88
2023-01-03T16:25:27.982Z,101948.44
2023-01-03T16:27:54.673Z,101947.63
2023-01-03T16:30:21.689Z,101941.25
2023-01-03T16:32:48.281Z,101932.66
2023-01-03T16:35:17.209Z,101935.41
2023-01-03T16:37:45.838Z,101928.69
2023-01-03T16:40:18.608Z,101926.09
2023-01-03T16:42:45.205Z,101922.59
2023-01-03T16:45:12.339Z,101922.16
2023-01-03T16:47:39.229Z,101925.75
2023-01-03T16:50:19.029Z,101923.16
2023-01-03T16:52:52.322Z,101926.97
2023-01-03T16:55:24.889Z,101930.13
2023-01-03T16:57:54.544Z,101924.19
2023-01-03T17:00:24.988Z,101926.09
2023-01-03T17:02:52.063Z,101927.63
2023-01-03T17:05:18.825Z,101933.06
2023-01-03T17:07:47.460Z,101933.31
2023-01-03T17:10:26.685Z,101925.22
2023-01-03T17:12:54.753Z,101927.03
2023-01-03T17:15:21.376Z,101931.75
2023-01-03T17:17:47.961Z,101931.75
2023-01-03T17:20:19.331Z,101937.09
2023-01-03T17:22:59.362Z,101928.38
2023-01-03T17:25:26.132Z,101933.00
2023-01-03T17:27:56.621Z,101928.91
2023-01-03T17:30:25.836Z,101928.91
2023-01-03T17:32:52.629Z,101932.44
2023-01-03T17:35:19.526Z,101930.88
2023-01-03T17:38:23.598Z,101938.00
2023-01-03T17:40:34.504Z,101942.06
2023-01-03T17:43:02.368Z,101937.63
2023-01-03T17:45:48.176Z,101935.84
2023-01-03T17:48:33.525Z,101917.63
2023-01-03T17:51:01.712Z,101921.41
2023-01-03T17:53:29.281Z,101915.75
2023-01-03T17:55:56.045Z,101911.78
2023-01-03T17:58:32.195Z,101912.22
2023-01-03T18:00:59.025Z,101915.94
2023-01-03T18:03:25.928Z,101926.19
2023-01-03T18:05:53.549Z,101914.88
2023-01-03T18:08:23.262Z,101925.22
2023-01-03T18:10:53.340Z,101922.50
2023-01-03T18:13:34.135Z,101918.81
2023-01-03T18:16:00.893Z,101920.97
2023-01-03T18:18:35.145Z,101936.25
2023-01-03T18:21:05.166Z,101932.78
2023-01-03T18:23:34.007Z,101932.28
2023-01-03T18:26:04.110Z,101925.59
2023-01-03T18:28:31.106Z,101924.44
2023-01-03T18:30:57.955Z,101921.84
2023-01-03T18:33:25.150Z,101913.47
2023-01-03T18:35:52.907Z,101903.72
2023-01-03T18:38:31.939Z,101903.88
2023-01-03T18:41:05.083Z,101901.75
2023-01-03T18:43:33.036Z,101899.03
2023-01-03T18:45:59.715Z,101900.72
2023-01-03T18:48:26.379Z,101902.69
2023-01-03T18:50:59.073Z,101899.16
2023-01-03T18:53:31.168Z,101890.69
2023-01-03T18:55:58.280Z,101893.91
2023-01-03T18:58:27.725Z,101891.03
2023-01-03T19:00:54.271Z,101889.06
2023-01-03T19:03:24.210Z,101882.38
2023-01-03T19:05:51.137Z,101884.25
2023-01-03T19:08:19.996Z,101876.13
2023-01-03T19:10:46.815Z,101875.94
2023-01-03T19:13:51.613Z,101874.47
2023-01-03T19:16:21.035Z,101875.00
2023-01-03T19:18:47.894Z,101873.59
2023-01-03T19:21:15.731Z,101867.97
2023-01-03T19:23:46.251Z,101861.91
2023-01-03T19:26:31.805Z,101855.09
2023-01-03T19:29:02.578Z,101862.94
2023-01-03T19:31:45.570Z,101860.59
2023-01-03T19:34:21.467Z,101852.28
2023-01-03T19:36:48.238Z,101852.00
2023-01-03T19:39:17.662Z,101846.25
2023-01-03T19:42:07.988Z,101848.59
2023-01-03T19:44:35.189Z,101848.59
2023-01-03T19:47:02.582Z,101845.47
2023-01-03T19:49:29.333Z,101840.44
2023-01-03T19:51:57.074Z,101843.63
2023-01-03T19:54:24.271Z,101835.41
2023-01-03T19:56:57.463Z,101834.03
2023-01-03T19:59:34.289Z,101825.53
2023-01-03T20:04:50.544Z,101821.25
2023-01-03T20:07:17.150Z,101820.53
2023-01-03T20:09:43.740Z,101820.88
2023-01-03T20:12:15.265Z,101819.56
2023-01-03T20:14:46.997Z,101804.41
2023-01-03T20:17:25.007Z,101800.13
2023-01-03T20:19:52.576Z,101801.34
2023-01-03T20:22:53.610Z,101801.59
2023-01-03T20:25:29.563Z,101792.16
2023-01-03T20:27:57.820Z,101787.47
2023-01-03T20:30:26.903Z,101789.09
2023-01-03T20:32:53.962Z,101778.25
2023-01-03T20:38:10.850Z,101774.84
2023-01-03T20:40:38.010Z,101772.00
2023-01-03T20:43:05.433Z,101767.00
2023-01-03T20:45:32.475Z,101769.59
2023-01-03T20:47:59.925Z,101766.91
2023-01-03T20:50:28.507Z,101766.03
2023-01-03T20:52:55.744Z,101763.91
2023-01-03T20:55:23.820Z,101760.59
2023-01-03T20:57:51.224Z,101760.63
2023-01-03T21:00:26.701Z,101758.44
2023-01-03T21:02:53.728Z,101762.59
2023-01-03T21:05:20.795Z,101755.41
2023-01-03T21:08:07.403Z,101746.25
2023-01-03T21:10:41.672Z,101751.91
2023-01-03T21:13:09.614Z,101739.50
2023-01-03T21:15:37.846Z,101727.31
2023-01-03T21:18:05.462Z,101731.31
2023-01-03T21:20:32.645Z,101732.16
2023-01-03T21:22:59.408Z,101722.59
2023-01-03T21:25:29.843Z,101717.41
2023-01-03T21:27:56.506Z,101712.16
2023-01-03T21:30:23.744Z,101709.56
2023-01-03T21:32:50.466Z,101705.88
2023-01-03T21:35:19.972Z,101702.41
2023-01-03T21:37:47.362Z,101700.84
2023-01-03T21:40:17.338Z,101701.53
2023-01-03T21:43:04.182Z,101701.38
2023-01-03T21:45:44.363Z,101703.28
2023-01-03T21:48:13.595Z,101706.44
2023-01-03T21:50:45.408Z,101707.25
2023-01-03T21:53:19.844Z,101715.63
2023-01-03T21:55:47.717Z,101697.16
2023-01-03T21:58:16.463Z,101696.63
2023-01-03T22:00:43.637Z,101686.56
2023-01-03T22:03:30.618Z,101685.03
2023-01-03T22:06:12.125Z,101692.84
2023-01-03T22:08:39.811Z,101686.41
2023-01-03T22:11:07.125Z,101680.56
2023-01-03T22:13:34.061Z,101679.84
2023-01-03T22:16:08.237Z,101667.50
2023-01-03T22:18:35.490Z,101666.22
2023-01-03T22:21:07.207Z,101663.50
2023-01-03T22:23:34.248Z,101663.59
2023-01-03T22:26:02.230Z,101651.09
2023-01-03T22:28:35.869Z,101654.72
2023-01-03T22:31:10.242Z,101645.19
2023-01-03T22:33:36.870Z,101649.91
2023-01-03T22:36:03.761Z,101648.72
2023-01-03T22:38:30.333Z,101647.75
2023-01-03T22:40:56.915Z,101651.97
2023-01-03T22:43:23.538Z,101647.69
2023-01-03T22:45:50.162Z,101644.88
2023-01-03T22:48:16.768Z,101643.25
2023-01-03T22:50:43.336Z,101640.31
2023-01-03T22:53:13.067Z,101631.34
2023-01-03T22:55:43.741Z,101639.69
2023-01-03T22:58:10.869Z,101635.66
2023-01-03T23:00:37.432Z,101625.94
2023-01-03T23:03:04.047Z,101627.31
2023-01-03T23:05:30.663Z,101618.50
2023-01-03T23:07:57.248Z,101620.72
2023-01-03T23:10:23.771Z,101614.81
2023-01-03T23:12:59.323Z,101605.28
2023-01-03T23:15:28.468Z,101604.03
2023-01-03T23:17:58.051Z,101604.09
2023-01-03T23:20:35.264Z,101602.06
2023-01-03T23:23:05.725Z,101593.88
2023-01-03T23:25:35.304Z,101587.94
2023-01-03T23:28:01.760Z,101587.69
2023-01-03T23:30:28.369Z,101582.19
2023-01-03T23:32:55.777Z,101567.13
2023-01-03T23:35:22.351Z,101563.44
2023-01-03T23:37:48.907Z,101560.19
2023-01-03T23:40:15.704Z,101550.56
2023-01-03T23:42:42.445Z,101540.16
2023-01-03T23:45:09.359Z,101545.66
2023-01-03T23:47:36.030Z,101540.63
2023-01-03T23:50:02.772Z,101541.25
2023-01-03T23:52:29.310Z,101540.16
2023-01-03T23:55:00.723Z,101529.88
2023-01-03T23:57:29.022Z,101520.91
2023-01-03T23:59:55.629Z,101517.38
